Time;durP1;ratioP1;P1;durP2;ratioP2;P2;SDS_P1;SDS_P2;PMS_P1;PMS_P2;Temp;Humidity;BMP_temperature;BMP_pressure;BME280_temperature;BME280_humidity;BME280_pressure;Samples;Min_cycle;Max_cycle;Signal;HPM_P1;HPM_P2
2022/07/08 00:01:51;;;;;;;9.90;3.30;;;;;;;;;;5071717;28;20561;-54
2022/07/08 00:04:18;;;;;;;11.63;3.27;;;;;;;;;;5071945;28;20199;-53
2022/07/08 00:06:44;;;;;;;14.23;3.20;;;;;;;;;;5071875;28;20206;-53
2022/07/08 00:09:10;;;;;;;10.07;2.93;;;;;;;;;;5071721;28;20235;-53
2022/07/08 00:11:36;;;;;;;8.70;3.20;;;;;;;;;;5071688;28;20206;-52
2022/07/08 00:14:02;;;;;;;9.40;3.10;;;;;;;;;;5071965;28;20226;-53
2022/07/08 00:16:28;;;;;;;8.93;2.60;;;;;;;;;;5071657;28;20218;-51
2022/07/08 00:18:55;;;;;;;10.20;3.50;;;;;;;;;;5071536;28;20219;-54
2022/07/08 00:21:22;;;;;;;7.27;2.27;;;;;;;;;;5071640;28;20566;-53
2022/07/08 00:23:48;;;;;;;9.47;2.70;;;;;;;;;;5071799;28;20195;-53
2022/07/08 00:26:14;;;;;;;9.87;2.77;;;;;;;;;;5071803;28;20246;-53
2022/07/08 00:28:40;;;;;;;10.63;2.70;;;;;;;;;;5071490;28;20247;-53
2022/07/08 00:31:06;;;;;;;7.10;2.30;;;;;;;;;;5071648;28;20222;-54
2022/07/08 00:33:32;;;;;;;12.63;3.00;;;;;;;;;;5071630;28;20615;-53
2022/07/08 00:35:58;;;;;;;9.67;3.07;;;;;;;;;;5071553;28;20203;-52
2022/07/08 00:38:25;;;;;;;12.70;2.93;;;;;;;;;;5071371;28;20242;-54
2022/07/08 00:40:51;;;;;;;11.00;2.77;;;;;;;;;;5071560;28;20227;-53
2022/07/08 00:43:24;;;;;;;9.43;2.63;;;;;;;;;;5071538;28;20203;-53
2022/07/08 00:45:50;;;;;;;11.03;3.00;;;;;;;;;;5071533;28;20195;-53
2022/07/08 00:48:16;;;;;;;12.23;2.80;;;;;;;;;;5071476;28;20196;-53
2022/07/08 00:50:43;;;;;;;10.13;2.90;;;;;;;;;;5071267;28;20257;-53
2022/07/08 00:53:09;;;;;;;12.43;2.70;;;;;;;;;;5071365;28;20201;-54
2022/07/08 00:55:36;;;;;;;14.33;3.23;;;;;;;;;;5071219;28;20669;-53
2022/07/08 00:58:03;;;;;;;10.00;2.97;;;;;;;;;;5071656;28;20620;-53
2022/07/08 01:00:29;;;;;;;8.53;2.53;;;;;;;;;;5071180;28;20238;-53
2022/07/08 01:02:55;;;;;;;11.63;3.03;;;;;;;;;;5071126;28;20199;-53
2022/07/08 01:05:21;;;;;;;12.27;2.60;;;;;;;;;;5072747;28;20196;-54
2022/07/08 01:07:48;;;;;;;8.47;2.90;;;;;;;;;;5075026;28;20731;-53
2022/07/08 01:10:14;;;;;;;8.20;2.57;;;;;;;;;;5074816;28;20226;-54
2022/07/08 01:12:41;;;;;;;12.87;2.93;;;;;;;;;;5074809;28;20196;-53
2022/07/08 01:15:08;;;;;;;13.97;3.63;;;;;;;;;;5075032;28;20611;-52
2022/07/08 01:17:40;;;;;;;9.37;3.10;;;;;;;;;;5074708;28;20200;-52
2022/07/08 01:20:06;;;;;;;9.90;2.63;;;;;;;;;;5074621;28;20322;-52
2022/07/08 01:22:34;;;;;;;12.63;2.80;;;;;;;;;;5074692;28;20226;-53
2022/07/08 01:25:00;;;;;;;10.00;3.00;;;;;;;;;;5074651;28;20210;-55
2022/07/08 01:27:26;;;;;;;10.83;3.10;;;;;;;;;;5074333;28;20245;-53
2022/07/08 01:29:52;;;;;;;12.17;2.87;;;;;;;;;;5074469;28;20219;-53
2022/07/08 01:32:18;;;;;;;9.27;2.80;;;;;;;;;;5074410;28;20207;-54
2022/07/08 01:34:44;;;;;;;11.27;2.90;;;;;;;;;;5074712;28;20211;-53
2022/07/08 01:37:10;;;;;;;13.47;3.67;;;;;;;;;;5074498;28;20203;-54
2022/07/08 01:39:37;;;;;;;13.00;2.70;;;;;;;;;;5074216;28;20230;-52
2022/07/08 01:42:03;;;;;;;12.77;3.17;;;;;;;;;;5074354;28;20203;-53
2022/07/08 01:44:29;;;;;;;12.83;3.20;;;;;;;;;;5074198;28;20677;-54
2022/07/08 01:46:55;;;;;;;12.50;2.90;;;;;;;;;;5074519;28;20218;-53
2022/07/08 01:49:22;;;;;;;9.30;2.80;;;;;;;;;;5074100;28;20223;-53
2022/07/08 01:51:48;;;;;;;10.50;2.37;;;;;;;;;;5074337;28;20195;-54
2022/07/08 01:54:13;;;;;;;9.87;2.77;;;;;;;;;;5073946;28;20273;-52
2022/07/08 01:56:41;;;;;;;8.63;2.93;;;;;;;;;;5073868;28;20196;-54
2022/07/08 01:59:09;;;;;;;8.77;2.83;;;;;;;;;;5073999;28;20233;-54
2022/07/08 02:01:35;;;;;;;10.00;2.60;;;;;;;;;;5073805;28;20230;-53
2022/07/08 02:04:01;;;;;;;9.20;2.70;;;;;;;;;;5074196;28;20203;-54
2022/07/08 02:06:28;;;;;;;7.23;2.90;;;;;;;;;;5073765;28;20195;-54
2022/07/08 02:08:54;;;;;;;7.97;2.20;;;;;;;;;;5073630;28;20713;-54
2022/07/08 02:14:06;;;;;;;11.30;2.50;;;;;;;;;;5073989;28;20256;-52
2022/07/08 02:16:32;;;;;;;9.27;2.63;;;;;;;;;;5072726;28;20200;-51
2022/07/08 02:18:59;;;;;;;8.60;2.90;;;;;;;;;;5073447;28;20195;-53
2022/07/08 02:21:25;;;;;;;11.17;3.30;;;;;;;;;;5073463;28;20195;-52
2022/07/08 02:23:51;;;;;;;15.03;3.00;;;;;;;;;;5073539;28;20195;-52
2022/07/08 02:26:17;;;;;;;9.80;2.87;;;;;;;;;;5073441;28;20192;-52
2022/07/08 02:28:43;;;;;;;7.23;2.90;;;;;;;;;;5073389;28;20230;-52
2022/07/08 02:31:10;;;;;;;8.50;2.43;;;;;;;;;;5073563;28;20982;-53
2022/07/08 02:33:36;;;;;;;13.00;3.20;;;;;;;;;;5073174;28;20208;-53
2022/07/08 02:36:02;;;;;;;9.60;2.70;;;;;;;;;;5073343;28;20207;-53
2022/07/08 02:38:28;;;;;;;7.47;2.47;;;;;;;;;;5072934;28;20731;-53
2022/07/08 02:40:54;;;;;;;8.03;2.60;;;;;;;;;;5073338;28;20195;-53
2022/07/08 02:43:20;;;;;;;8.97;2.23;;;;;;;;;;5073241;28;20637;-53
2022/07/08 02:45:46;;;;;;;7.30;2.50;;;;;;;;;;5073256;28;20200;-55
2022/07/08 02:48:13;;;;;;;10.17;2.43;;;;;;;;;;5073035;28;20287;-54
2022/07/08 02:50:39;;;;;;;14.87;3.43;;;;;;;;;;5072827;28;20288;-53
2022/07/08 02:53:06;;;;;;;8.80;2.50;;;;;;;;;;5072910;28;20199;-54
2022/07/08 02:55:32;;;;;;;8.77;2.40;;;;;;;;;;5072879;28;20650;-53
2022/07/08 02:57:58;;;;;;;8.40;2.67;;;;;;;;;;5072774;28;20214;-53
2022/07/08 03:00:24;;;;;;;7.37;2.60;;;;;;;;;;5072653;28;20215;-54
2022/07/08 03:02:50;;;;;;;9.70;2.87;;;;;;;;;;5072711;28;20613;-53
2022/07/08 03:05:18;;;;;;;12.73;2.57;;;;;;;;;;5072788;28;20198;-54
2022/07/08 03:07:44;;;;;;;9.10;2.57;;;;;;;;;;5072541;28;20205;-53
2022/07/08 03:10:10;;;;;;;10.90;2.77;;;;;;;;;;5072564;28;20309;-54
2022/07/08 03:12:36;;;;;;;9.03;2.67;;;;;;;;;;5072412;28;20226;-53
2022/07/08 03:15:02;;;;;;;8.43;2.43;;;;;;;;;;5072511;28;20231;-54
2022/07/08 03:17:28;;;;;;;11.57;2.80;;;;;;;;;;5072376;28;20198;-53
2022/07/08 03:19:54;;;;;;;8.70;2.80;;;;;;;;;;5072396;28;20232;-53
2022/07/08 03:22:21;;;;;;;11.63;3.30;;;;;;;;;;5072369;28;20202;-54
2022/07/08 03:24:47;;;;;;;9.00;2.60;;;;;;;;;;5072495;28;20272;-54
2022/07/08 03:27:13;;;;;;;7.70;2.17;;;;;;;;;;5072265;28;20648;-54
2022/07/08 03:29:39;;;;;;;8.47;2.50;;;;;;;;;;5071996;28;20260;-54
2022/07/08 03:32:05;;;;;;;9.60;2.67;;;;;;;;;;5072588;28;20666;-54
2022/07/08 03:34:31;;;;;;;8.30;2.20;;;;;;;;;;5072293;28;20207;-54
2022/07/08 03:36:57;;;;;;;7.43;2.23;;;;;;;;;;5072042;28;20240;-54
2022/07/08 03:39:24;;;;;;;10.30;2.73;;;;;;;;;;5072023;28;20195;-54
2022/07/08 03:41:50;;;;;;;5.47;2.13;;;;;;;;;;5072421;28;20256;-53
2022/07/08 03:44:16;;;;;;;11.53;2.57;;;;;;;;;;5072103;28;20203;-55
2022/07/08 03:46:42;;;;;;;11.77;2.70;;;;;;;;;;5072095;28;20198;-53
2022/07/08 03:49:08;;;;;;;9.10;2.83;;;;;;;;;;5071948;28;20597;-53
2022/07/08 03:51:34;;;;;;;7.07;2.47;;;;;;;;;;5071909;28;20426;-53
2022/07/08 03:54:00;;;;;;;10.03;2.37;;;;;;;;;;5072045;28;20676;-52
2022/07/08 03:56:27;;;;;;;12.00;2.67;;;;;;;;;;5071878;28;20199;-53
2022/07/08 03:58:53;;;;;;;11.30;2.90;;;;;;;;;;5071899;28;20264;-54
2022/07/08 04:01:19;;;;;;;9.00;2.60;;;;;;;;;;5071885;28;20225;-54
2022/07/08 04:03:46;;;;;;;5.07;2.20;;;;;;;;;;5071959;28;20607;-53
2022/07/08 04:06:12;;;;;;;8.80;2.60;;;;;;;;;;5071863;28;20199;-53
2022/07/08 04:08:38;;;;;;;7.10;2.33;;;;;;;;;;5071636;28;20195;-53
2022/07/08 04:11:04;;;;;;;7.20;2.30;;;;;;;;;;5072028;28;20685;-53
2022/07/08 04:13:32;;;;;;;12.33;2.53;;;;;;;;;;5071788;28;20207;-53
2022/07/08 04:15:58;;;;;;;9.50;2.30;;;;;;;;;;5071732;28;20554;-53
2022/07/08 04:18:27;;;;;;;5.97;2.10;;;;;;;;;;5071600;28;20203;-54
2022/07/08 04:20:53;;;;;;;6.83;2.40;;;;;;;;;;5071547;28;20239;-53
2022/07/08 04:23:19;;;;;;;15.83;2.87;;;;;;;;;;5071928;28;20195;-53
2022/07/08 04:25:45;;;;;;;13.77;3.13;;;;;;;;;;5071834;28;20269;-53
2022/07/08 04:28:11;;;;;;;5.67;2.20;;;;;;;;;;5071770;28;20666;-53
2022/07/08 04:30:39;;;;;;;9.03;3.03;;;;;;;;;;5071529;28;20216;-53
2022/07/08 04:33:05;;;;;;;11.07;2.70;;;;;;;;;;5071731;28;20206;-53
2022/07/08 04:35:31;;;;;;;7.50;2.40;;;;;;;;;;5071502;28;20204;-52
2022/07/08 04:37:57;;;;;;;11.67;2.73;;;;;;;;;;5071477;28;20195;-53
2022/07/08 04:40:23;;;;;;;10.63;2.70;;;;;;;;;;5073483;28;20569;-53
2022/07/08 04:42:49;;;;;;;6.73;2.40;;;;;;;;;;5075440;28;20196;-53
2022/07/08 04:45:15;;;;;;;7.53;2.10;;;;;;;;;;5075770;28;20198;-53
2022/07/08 04:47:43;;;;;;;9.30;2.60;;;;;;;;;;5075435;28;20214;-53
2022/07/08 04:50:09;;;;;;;8.17;2.33;;;;;;;;;;5075095;28;20605;-53
2022/07/08 04:52:35;;;;;;;11.90;2.70;;;;;;;;;;5075039;28;20207;-53
2022/07/08 04:55:02;;;;;;;8.00;2.63;;;;;;;;;;5075344;28;20200;-53
2022/07/08 04:57:32;;;;;;;9.20;2.07;;;;;;;;;;5075077;28;20195;-52
2022/07/08 04:59:58;;;;;;;10.63;2.60;;;;;;;;;;5075040;28;20244;-53
2022/07/08 05:02:24;;;;;;;6.27;2.40;;;;;;;;;;5074917;28;20206;-52
2022/07/08 05:04:52;;;;;;;8.50;2.47;;;;;;;;;;5075140;28;20199;-53
2022/07/08 05:07:18;;;;;;;6.73;2.40;;;;;;;;;;5075041;28;20257;-52
2022/07/08 05:09:44;;;;;;;5.63;2.40;;;;;;;;;;5074739;28;20586;-52
2022/07/08 05:12:10;;;;;;;6.87;2.00;;;;;;;;;;5074827;28;20222;-52
2022/07/08 05:14:36;;;;;;;9.90;2.80;;;;;;;;;;5074511;28;20662;-53
2022/07/08 05:17:03;;;;;;;6.80;2.43;;;;;;;;;;5074866;28;20210;-53
2022/07/08 05:19:29;;;;;;;10.63;2.43;;;;;;;;;;5074484;28;20237;-53
2022/07/08 05:21:56;;;;;;;8.10;2.47;;;;;;;;;;5074658;28;20199;-53
2022/07/08 05:24:22;;;;;;;11.70;2.53;;;;;;;;;;5074585;28;20210;-53
2022/07/08 05:26:48;;;;;;;8.10;2.23;;;;;;;;;;5074830;28;20568;-53
2022/07/08 05:29:14;;;;;;;7.00;2.53;;;;;;;;;;5074535;28;20269;-53
2022/07/08 05:31:40;;;;;;;10.70;2.90;;;;;;;;;;5074211;28;20200;-54
2022/07/08 05:34:06;;;;;;;5.90;2.20;;;;;;;;;;5074595;28;20195;-53
2022/07/08 05:36:32;;;;;;;8.73;2.20;;;;;;;;;;5074252;28;20203;-54
2022/07/08 05:39:01;;;;;;;7.97;2.40;;;;;;;;;;5074326;28;20208;-53
2022/07/08 05:41:27;;;;;;;4.83;2.20;;;;;;;;;;5074184;28;20207;-53
2022/07/08 05:43:53;;;;;;;8.90;2.33;;;;;;;;;;5074108;28;20204;-53
2022/07/08 05:46:19;;;;;;;7.30;2.07;;;;;;;;;;5074293;28;20225;-52
2022/07/08 05:48:45;;;;;;;7.67;2.30;;;;;;;;;;5074131;28;20282;-53
2022/07/08 05:51:11;;;;;;;6.93;2.20;;;;;;;;;;5074072;28;20446;-52
2022/07/08 05:53:37;;;;;;;9.00;2.60;;;;;;;;;;5074012;28;20227;-53
2022/07/08 05:56:05;;;;;;;7.63;2.47;;;;;;;;;;5074113;28;20226;-52
2022/07/08 05:58:31;;;;;;;10.43;2.80;;;;;;;;;;5074064;28;20776;-53
2022/07/08 06:00:57;;;;;;;6.60;2.00;;;;;;;;;;5074007;28;20219;-52
2022/07/08 06:03:23;;;;;;;5.23;1.97;;;;;;;;;;5073883;28;20195;-52
2022/07/08 06:05:49;;;;;;;7.27;2.47;;;;;;;;;;5074060;28;20278;-53
2022/07/08 06:08:15;;;;;;;9.27;2.50;;;;;;;;;;5073872;28;20214;-53
2022/07/08 06:10:41;;;;;;;8.17;2.13;;;;;;;;;;5073674;28;20671;-53
2022/07/08 06:13:08;;;;;;;7.47;2.30;;;;;;;;;;5073889;28;20203;-52
2022/07/08 06:15:34;;;;;;;8.70;2.80;;;;;;;;;;5073095;28;20199;-52
2022/07/08 06:18:00;;;;;;;7.37;2.43;;;;;;;;;;5073615;28;20282;-53
2022/07/08 06:20:26;;;;;;;7.77;2.70;;;;;;;;;;5073017;28;20253;-53
2022/07/08 06:22:52;;;;;;;8.57;2.63;;;;;;;;;;5073436;28;20195;-53
2022/07/08 06:25:18;;;;;;;6.67;2.30;;;;;;;;;;5073557;28;20589;-53
2022/07/08 06:27:44;;;;;;;8.30;2.20;;;;;;;;;;5073366;28;20203;-52
2022/07/08 06:30:12;;;;;;;9.43;2.60;;;;;;;;;;5073288;28;20231;-52
2022/07/08 06:32:38;;;;;;;9.90;2.30;;;;;;;;;;5073080;28;20215;-53
2022/07/08 06:35:05;;;;;;;8.27;2.67;;;;;;;;;;5073180;28;20204;-53
2022/07/08 06:37:31;;;;;;;10.17;2.50;;;;;;;;;;5073108;28;20557;-53
2022/07/08 06:39:57;;;;;;;9.77;2.80;;;;;;;;;;5073225;28;20241;-54
2022/07/08 06:42:23;;;;;;;5.93;1.80;;;;;;;;;;5073118;28;20204;-53
2022/07/08 06:44:48;;;;;;;9.43;2.33;;;;;;;;;;5073215;28;20191;-53
2022/07/08 06:47:16;;;;;;;10.37;2.40;;;;;;;;;;5073011;28;20615;-54
2022/07/08 06:49:42;;;;;;;4.23;2.07;;;;;;;;;;5072790;28;20245;-54
2022/07/08 06:52:08;;;;;;;5.73;2.20;;;;;;;;;;5072802;28;20678;-52
2022/07/08 06:54:37;;;;;;;8.93;2.73;;;;;;;;;;5072727;28;20195;-52
2022/07/08 06:57:03;;;;;;;7.30;2.10;;;;;;;;;;5072936;28;20200;-52
2022/07/08 06:59:30;;;;;;;6.50;2.30;;;;;;;;;;5072451;28;20242;-52
2022/07/08 07:01:56;;;;;;;6.90;2.10;;;;;;;;;;5072807;28;20191;-54
2022/07/08 07:04:23;;;;;;;8.47;2.20;;;;;;;;;;5072259;28;20789;-55
2022/07/08 07:06:49;;;;;;;5.70;2.23;;;;;;;;;;5072632;28;20210;-54
2022/07/08 07:09:15;;;;;;;6.57;2.00;;;;;;;;;;5072599;28;20231;-52
2022/07/08 07:11:41;;;;;;;10.43;2.80;;;;;;;;;;5072490;28;20661;-53
2022/07/08 07:14:07;;;;;;;7.40;2.40;;;;;;;;;;5072580;28;20294;-53
2022/07/08 07:16:33;;;;;;;6.67;2.30;;;;;;;;;;5072328;28;20291;-53
2022/07/08 07:18:59;;;;;;;5.80;2.00;;;;;;;;;;5072125;28;20274;-54
2022/07/08 07:21:26;;;;;;;10.23;2.43;;;;;;;;;;5072241;28;20209;-54
2022/07/08 07:23:52;;;;;;;7.07;2.30;;;;;;;;;;5072266;28;20298;-54
2022/07/08 07:26:18;;;;;;;4.83;2.00;;;;;;;;;;5072505;28;20227;-54
2022/07/08 07:28:44;;;;;;;10.47;2.30;;;;;;;;;;5072219;28;20194;-53
2022/07/08 07:31:10;;;;;;;5.90;2.10;;;;;;;;;;5072024;28;20254;-52
2022/07/08 07:33:36;;;;;;;8.03;2.10;;;;;;;;;;5072161;28;20197;-54
2022/07/08 07:36:02;;;;;;;4.97;1.77;;;;;;;;;;5072444;28;20703;-54
2022/07/08 07:38:30;;;;;;;9.67;2.30;;;;;;;;;;5072103;28;20250;-53
2022/07/08 07:40:56;;;;;;;8.67;2.27;;;;;;;;;;5072197;28;20197;-53
2022/07/08 07:43:22;;;;;;;6.30;2.00;;;;;;;;;;5071993;28;20693;-49
2022/07/08 07:45:48;;;;;;;8.23;2.67;;;;;;;;;;5072082;28;20198;-51
2022/07/08 07:48:14;;;;;;;9.27;2.03;;;;;;;;;;5072111;28;20194;-51
2022/07/08 07:50:40;;;;;;;5.87;1.90;;;;;;;;;;5071792;28;20240;-53
2022/07/08 07:53:06;;;;;;;11.80;2.17;;;;;;;;;;5072183;28;20244;-49
2022/07/08 07:55:34;;;;;;;8.33;2.20;;;;;;;;;;5071929;28;20202;-51
2022/07/08 07:58:00;;;;;;;5.97;2.30;;;;;;;;;;5072122;28;20297;-51
2022/07/08 08:00:26;;;;;;;10.73;2.13;;;;;;;;;;5071844;28;20246;-52
2022/07/08 08:02:52;;;;;;;6.50;2.00;;;;;;;;;;5071677;28;20564;-53
2022/07/08 08:05:18;;;;;;;7.13;2.30;;;;;;;;;;5072041;28;20205;-52
2022/07/08 08:07:44;;;;;;;11.87;2.23;;;;;;;;;;5071743;28;20210;-51
2022/07/08 08:10:14;;;;;;;6.50;2.43;;;;;;;;;;5071702;28;20226;-51
2022/07/08 08:12:42;;;;;;;4.47;2.03;;;;;;;;;;5071627;28;20613;-52
2022/07/08 08:15:08;;;;;;;5.43;1.87;;;;;;;;;;5073042;28;20199;-53
2022/07/08 08:17:37;;;;;;;6.03;1.90;;;;;;;;;;5075845;28;20221;-52
2022/07/08 08:20:03;;;;;;;5.60;1.90;;;;;;;;;;5075815;28;20225;-52
2022/07/08 08:22:29;;;;;;;6.70;2.10;;;;;;;;;;5075737;28;20209;-52
2022/07/08 08:24:55;;;;;;;6.40;1.70;;;;;;;;;;5075864;28;20202;-53
2022/07/08 08:27:22;;;;;;;6.90;2.30;;;;;;;;;;5075406;28;20319;-53
2022/07/08 08:29:49;;;;;;;8.03;2.13;;;;;;;;;;5075467;28;20276;-51
2022/07/08 08:32:15;;;;;;;7.13;1.77;;;;;;;;;;5075632;28;20202;-52
2022/07/08 08:34:41;;;;;;;7.07;2.13;;;;;;;;;;5075590;28;20301;-52
2022/07/08 08:37:07;;;;;;;8.87;2.40;;;;;;;;;;5073560;28;20206;-52
2022/07/08 08:39:33;;;;;;;6.17;2.33;;;;;;;;;;5075317;28;20195;-52
2022/07/08 08:41:59;;;;;;;5.30;2.33;;;;;;;;;;5075317;28;20214;-52
2022/07/08 08:44:26;;;;;;;9.30;2.20;;;;;;;;;;5075183;28;20305;-52
2022/07/08 08:46:53;;;;;;;6.53;2.20;;;;;;;;;;5075082;28;20206;-52
2022/07/08 08:49:20;;;;;;;5.03;2.00;;;;;;;;;;5074860;28;20658;-52
2022/07/08 08:51:49;;;;;;;10.90;2.53;;;;;;;;;;5075113;28;20246;-52
2022/07/08 08:54:16;;;;;;;7.90;1.87;;;;;;;;;;5075366;28;20228;-51
2022/07/08 08:56:43;;;;;;;9.60;2.00;;;;;;;;;;5075158;28;20234;-51
2022/07/08 08:59:09;;;;;;;5.43;1.80;;;;;;;;;;5074951;28;20406;-50
2022/07/08 09:01:35;;;;;;;6.23;2.03;;;;;;;;;;5075087;28;20224;-51
2022/07/08 09:04:04;;;;;;;10.27;2.17;;;;;;;;;;5075121;28;20199;-50
2022/07/08 09:06:30;;;;;;;6.93;2.20;;;;;;;;;;5074855;28;20210;-51
2022/07/08 09:08:56;;;;;;;5.57;1.87;;;;;;;;;;5074970;28;20831;-52
2022/07/08 09:11:22;;;;;;;6.40;1.90;;;;;;;;;;5074979;28;20201;-53
2022/07/08 09:14:03;;;;;;;7.00;2.23;;;;;;;;;;5075054;28;20722;-53
2022/07/08 09:16:29;;;;;;;7.60;2.80;;;;;;;;;;5074753;28;20202;-52
2022/07/08 09:19:11;;;;;;;7.10;2.27;;;;;;;;;;5074756;28;20569;-52
2022/07/08 09:21:38;;;;;;;7.07;2.30;;;;;;;;;;5074835;28;20200;-52
2022/07/08 09:24:16;;;;;;;10.63;2.33;;;;;;;;;;5074965;28;20207;-52
2022/07/08 09:26:42;;;;;;;7.63;2.00;;;;;;;;;;5074414;28;21029;-52
2022/07/08 09:29:08;;;;;;;8.00;1.93;;;;;;;;;;5074643;28;20202;-53
2022/07/08 09:31:35;;;;;;;8.73;2.10;;;;;;;;;;5074712;28;20687;-52
2022/07/08 09:34:05;;;;;;;6.23;2.27;;;;;;;;;;5074853;28;20356;-53
2022/07/08 09:36:43;;;;;;;6.13;1.93;;;;;;;;;;5074531;28;20209;-53
2022/07/08 09:39:16;;;;;;;7.37;1.90;;;;;;;;;;5074661;28;20232;-52
2022/07/08 09:41:46;;;;;;;8.13;2.33;;;;;;;;;;5074506;28;20209;-52
2022/07/08 09:44:15;;;;;;;7.67;1.97;;;;;;;;;;5074462;28;20677;-53
2022/07/08 09:46:42;;;;;;;8.10;2.40;;;;;;;;;;5074343;28;20198;-53
2022/07/08 09:49:08;;;;;;;5.33;2.17;;;;;;;;;;5074274;28;20233;-52
2022/07/08 09:51:37;;;;;;;4.70;1.90;;;;;;;;;;5074260;28;20683;-52
2022/07/08 09:54:09;;;;;;;6.70;2.03;;;;;;;;;;5074298;28;20607;-52
2022/07/08 09:56:36;;;;;;;8.73;2.43;;;;;;;;;;5074242;28;20199;-52
2022/07/08 09:59:02;;;;;;;6.40;1.90;;;;;;;;;;5074248;28;20195;-51
2022/07/08 10:01:29;;;;;;;6.03;2.27;;;;;;;;;;5073992;28;20657;-52
2022/07/08 10:03:55;;;;;;;6.77;1.77;;;;;;;;;;5074102;28;20200;-51
2022/07/08 10:06:21;;;;;;;3.70;1.57;;;;;;;;;;5073993;28;20730;-51
2022/07/08 10:08:47;;;;;;;5.87;2.17;;;;;;;;;;5074096;28;20206;-52
2022/07/08 10:11:14;;;;;;;7.80;2.10;;;;;;;;;;5073940;28;20225;-52
2022/07/08 10:13:41;;;;;;;6.93;2.10;;;;;;;;;;5073794;28;20210;-50
2022/07/08 10:16:12;;;;;;;3.93;2.20;;;;;;;;;;5073827;28;20199;-49
2022/07/08 10:18:40;;;;;;;3.63;1.67;;;;;;;;;;5073656;28;20646;-51
2022/07/08 10:21:08;;;;;;;7.03;1.90;;;;;;;;;;5073642;28;20235;-51
2022/07/08 10:23:36;;;;;;;6.07;1.90;;;;;;;;;;5071963;28;20275;-51
2022/07/08 10:26:03;;;;;;;6.13;1.87;;;;;;;;;;5073764;28;20641;-51
2022/07/08 10:28:34;;;;;;;6.47;2.10;;;;;;;;;;5073472;28;20200;-52
2022/07/08 10:31:01;;;;;;;8.23;2.20;;;;;;;;;;5073520;28;20216;-50
2022/07/08 10:33:29;;;;;;;6.03;2.10;;;;;;;;;;5073328;28;20676;-50
2022/07/08 10:36:01;;;;;;;5.40;2.13;;;;;;;;;;5073403;28;20202;-50
2022/07/08 10:38:29;;;;;;;6.83;2.10;;;;;;;;;;5072532;28;20249;-52
2022/07/08 10:40:55;;;;;;;6.50;2.13;;;;;;;;;;5073366;28;20199;-51
2022/07/08 10:43:22;;;;;;;7.27;2.20;;;;;;;;;;5073360;28;20749;-51
2022/07/08 10:45:59;;;;;;;4.63;2.07;;;;;;;;;;5073169;28;20277;-51
2022/07/08 10:48:27;;;;;;;3.97;1.63;;;;;;;;;;5073235;28;20574;-51
2022/07/08 10:50:53;;;;;;;8.70;1.90;;;;;;;;;;5073068;28;20223;-52
2022/07/08 10:53:19;;;;;;;8.90;2.23;;;;;;;;;;5073023;28;20207;-51
2022/07/08 10:55:47;;;;;;;6.60;2.07;;;;;;;;;;5073147;28;20207;-51
2022/07/08 10:58:13;;;;;;;4.47;2.00;;;;;;;;;;5073122;28;20208;-51
2022/07/08 11:00:39;;;;;;;6.70;2.27;;;;;;;;;;5072333;28;20223;-53
2022/07/08 11:03:08;;;;;;;5.93;1.80;;;;;;;;;;5072817;28;20195;-51
2022/07/08 11:05:37;;;;;;;7.87;1.90;;;;;;;;;;5072599;28;20236;-52
2022/07/08 11:08:23;;;;;;;5.93;2.20;;;;;;;;;;5072835;28;20212;-52
2022/07/08 11:10:49;;;;;;;5.47;1.77;;;;;;;;;;5072659;28;20219;-51
2022/07/08 11:13:16;;;;;;;5.70;1.80;;;;;;;;;;5072183;28;20799;-51
2022/07/08 11:15:42;;;;;;;5.80;2.50;;;;;;;;;;5071997;28;20290;-51
2022/07/08 11:18:08;;;;;;;5.67;2.23;;;;;;;;;;5072423;28;20321;-53
2022/07/08 11:20:35;;;;;;;5.43;2.27;;;;;;;;;;5072202;28;20236;-52
2022/07/08 11:23:05;;;;;;;5.20;1.70;;;;;;;;;;5072454;28;20677;-52
2022/07/08 11:25:31;;;;;;;9.67;2.40;;;;;;;;;;5072552;28;20654;-52
2022/07/08 11:28:00;;;;;;;7.50;2.33;;;;;;;;;;5072627;28;20222;-52
2022/07/08 11:30:30;;;;;;;4.03;2.30;;;;;;;;;;5072361;28;20234;-52
2022/07/08 11:32:58;;;;;;;5.13;2.20;;;;;;;;;;5072313;28;20199;-52
2022/07/08 11:35:24;;;;;;;4.63;1.90;;;;;;;;;;5071434;28;20206;-52
2022/07/08 11:37:50;;;;;;;7.77;2.03;;;;;;;;;;5072112;28;20630;-52
2022/07/08 11:40:18;;;;;;;5.70;2.20;;;;;;;;;;5069176;28;20283;-52
2022/07/08 11:42:44;;;;;;;6.30;2.17;;;;;;;;;;5071715;28;20287;-51
2022/07/08 11:45:11;;;;;;;5.63;1.63;;;;;;;;;;5071700;28;20202;-51
2022/07/08 11:47:37;;;;;;;5.07;2.03;;;;;;;;;;5071545;28;20210;-50
2022/07/08 11:50:04;;;;;;;6.27;2.17;;;;;;;;;;5071538;28;20230;-51
2022/07/08 11:52:31;;;;;;;7.00;2.00;;;;;;;;;;5071660;28;20199;-52
2022/07/08 11:55:01;;;;;;;6.67;2.37;;;;;;;;;;5071778;28;20188;-57
2022/07/08 11:57:29;;;;;;;6.13;2.27;;;;;;;;;;5071795;28;20685;-50
2022/07/08 11:59:55;;;;;;;5.97;1.83;;;;;;;;;;5071685;28;20609;-51
2022/07/08 12:02:23;;;;;;;5.70;1.90;;;;;;;;;;5071713;28;20199;-51
2022/07/08 12:04:50;;;;;;;8.03;2.10;;;;;;;;;;5071677;28;20207;-51
2022/07/08 12:07:20;;;;;;;6.10;2.17;;;;;;;;;;5071737;28;20221;-52
2022/07/08 12:09:52;;;;;;;7.23;2.30;;;;;;;;;;5071498;28;20598;-51
2022/07/08 12:12:20;;;;;;;6.07;2.73;;;;;;;;;;5071891;28;20269;-51
2022/07/08 12:14:48;;;;;;;3.40;1.73;;;;;;;;;;5071645;28;20206;-51
2022/07/08 12:17:22;;;;;;;7.53;2.50;;;;;;;;;;5071680;28;20203;-50
2022/07/08 12:19:50;;;;;;;5.23;2.03;;;;;;;;;;5071452;28;20235;-50
2022/07/08 12:22:16;;;;;;;5.80;2.33;;;;;;;;;;5071605;28;20203;-51
2022/07/08 12:24:42;;;;;;;6.20;2.17;;;;;;;;;;5071421;28;20290;-51
2022/07/08 12:27:09;;;;;;;7.47;2.20;;;;;;;;;;5071564;28;20203;-51
2022/07/08 12:29:38;;;;;;;7.03;2.20;;;;;;;;;;5071435;28;20708;-52
2022/07/08 12:32:06;;;;;;;4.47;1.97;;;;;;;;;;5071551;28;20328;-52
2022/07/08 12:34:33;;;;;;;5.37;2.20;;;;;;;;;;5071361;28;20205;-50
2022/07/08 12:37:13;;;;;;;6.73;2.13;;;;;;;;;;5071481;28;20249;-51
2022/07/08 12:39:39;;;;;;;6.57;2.23;;;;;;;;;;5071339;28;20191;-50
2022/07/08 12:42:05;;;;;;;6.53;2.20;;;;;;;;;;5071432;28;20225;-51
2022/07/08 12:44:32;;;;;;;6.37;2.23;;;;;;;;;;5071376;28;20279;-50
2022/07/08 12:46:59;;;;;;;4.50;1.90;;;;;;;;;;5071191;28;20201;-52
2022/07/08 12:49:27;;;;;;;5.67;2.23;;;;;;;;;;5071244;28;20295;-52
2022/07/08 12:51:53;;;;;;;4.10;1.90;;;;;;;;;;5071088;28;20279;-51
2022/07/08 12:54:19;;;;;;;5.27;2.20;;;;;;;;;;5071324;28;20191;-52
2022/07/08 12:56:46;;;;;;;7.60;2.60;;;;;;;;;;5071156;28;20210;-50
2022/07/08 12:59:12;;;;;;;5.80;2.00;;;;;;;;;;5071163;28;20307;-51
2022/07/08 13:01:38;;;;;;;4.67;1.70;;;;;;;;;;5073084;28;20195;-51
2022/07/08 13:04:04;;;;;;;4.17;1.70;;;;;;;;;;5075006;28;20291;-52
2022/07/08 13:06:32;;;;;;;7.80;2.10;;;;;;;;;;5074868;28;20211;-51
2022/07/08 13:08:58;;;;;;;6.80;2.00;;;;;;;;;;5074917;28;20199;-51
2022/07/08 13:11:23;;;;;;;5.10;2.37;;;;;;;;;;5074683;28;20318;-52
2022/07/08 13:13:49;;;;;;;6.87;2.17;;;;;;;;;;5074740;28;20708;-51
2022/07/08 13:16:15;;;;;;;4.17;1.80;;;;;;;;;;5074825;28;20195;-51
2022/07/08 13:18:41;;;;;;;5.53;1.93;;;;;;;;;;5074558;28;20674;-51
2022/07/08 13:21:07;;;;;;;5.40;2.33;;;;;;;;;;5074287;28;20285;-51
2022/07/08 13:23:35;;;;;;;4.90;2.10;;;;;;;;;;5074528;28;20203;-51
2022/07/08 13:26:01;;;;;;;5.53;2.03;;;;;;;;;;5074617;28;20209;-52
2022/07/08 13:28:27;;;;;;;4.80;2.20;;;;;;;;;;5074456;28;20196;-52
2022/07/08 13:30:53;;;;;;;5.47;2.00;;;;;;;;;;5074245;28;20231;-51
2022/07/08 13:33:19;;;;;;;7.17;2.10;;;;;;;;;;5074342;28;20195;-51
2022/07/08 13:35:45;;;;;;;5.63;1.80;;;;;;;;;;5074198;28;20202;-51
2022/07/08 13:38:11;;;;;;;5.57;2.20;;;;;;;;;;5074356;28;20195;-52
2022/07/08 13:40:38;;;;;;;4.00;2.07;;;;;;;;;;5074186;28;20273;-52
2022/07/08 13:43:04;;;;;;;4.73;2.40;;;;;;;;;;5074287;28;20260;-52
2022/07/08 13:45:30;;;;;;;9.87;2.53;;;;;;;;;;5074128;28;20203;-52
2022/07/08 13:47:56;;;;;;;3.27;1.67;;;;;;;;;;5073897;28;20269;-51
2022/07/08 13:50:22;;;;;;;7.47;2.00;;;;;;;;;;5073781;28;20623;-51
2022/07/08 13:52:48;;;;;;;5.13;2.10;;;;;;;;;;5073951;28;20192;-51
2022/07/08 13:55:14;;;;;;;6.10;2.50;;;;;;;;;;5073958;28;20207;-52
2022/07/08 13:57:42;;;;;;;3.30;1.70;;;;;;;;;;5073793;28;20204;-52
2022/07/08 14:00:08;;;;;;;3.90;2.00;;;;;;;;;;5073849;28;20277;-51
2022/07/08 14:02:34;;;;;;;3.00;1.77;;;;;;;;;;5073727;28;20654;-52
2022/07/08 14:05:00;;;;;;;3.23;1.80;;;;;;;;;;5073940;28;20199;-51
2022/07/08 14:07:26;;;;;;;4.43;2.03;;;;;;;;;;5073569;28;20728;-51
2022/07/08 14:09:52;;;;;;;4.33;1.93;;;;;;;;;;5073501;28;20223;-52
2022/07/08 14:12:18;;;;;;;3.87;1.87;;;;;;;;;;5072603;28;20196;-52
2022/07/08 14:14:46;;;;;;;4.10;2.10;;;;;;;;;;5073475;28;20561;-52
2022/07/08 14:17:11;;;;;;;3.60;2.00;;;;;;;;;;5073551;28;20200;-51
2022/07/08 14:19:40;;;;;;;3.93;1.90;;;;;;;;;;5073200;28;20254;-51
2022/07/08 14:22:07;;;;;;;3.70;1.70;;;;;;;;;;5073428;28;20199;-52
2022/07/08 14:24:33;;;;;;;4.27;1.80;;;;;;;;;;5073472;28;20234;-50
2022/07/08 14:26:59;;;;;;;6.50;2.23;;;;;;;;;;5073235;28;20253;-52
2022/07/08 14:29:25;;;;;;;2.70;1.70;;;;;;;;;;5073480;28;20187;-51
2022/07/08 14:31:52;;;;;;;6.40;2.40;;;;;;;;;;5073139;28;20208;-53
2022/07/08 14:34:18;;;;;;;5.83;2.50;;;;;;;;;;5073239;28;20207;-52
2022/07/08 14:36:44;;;;;;;3.30;1.80;;;;;;;;;;5073101;28;20199;-52
2022/07/08 14:39:10;;;;;;;7.23;2.03;;;;;;;;;;5073121;28;20607;-52
2022/07/08 14:41:36;;;;;;;3.87;1.67;;;;;;;;;;5072900;28;20671;-51